sensor_id;sensor_type;location;lat;lon;timestamp;pressure;altitude;pressure_sealevel;temperature;humidity
60918;BME280;46792;38.854;-9.384;2023-03-13T00:00:52;99758.09;;;14.14;90.97
60918;BME280;46792;38.854;-9.384;2023-03-13T00:02:53;99759.19;;;14.13;91.15
60918;BME280;46792;38.854;-9.384;2023-03-13T00:04:54;99751.63;;;14.05;91.47
60918;BME280;46792;38.854;-9.384;2023-03-13T00:06:54;99744.88;;;14.02;92.32
60918;BME280;46792;38.854;-9.384;2023-03-13T00:09:14;99742.16;;;14.02;92.19
60918;BME280;46792;38.854;-9.384;2023-03-13T00:13:35;99734.34;;;13.95;91.63
60918;BME280;46792;38.854;-9.384;2023-03-13T00:15:35;99732.72;;;13.89;91.67
60918;BME280;46792;38.854;-9.384;2023-03-13T00:17:36;99739.25;;;13.88;91.68
60918;BME280;46792;38.854;-9.384;2023-03-13T00:19:37;99738.44;;;13.88;91.96
60918;BME280;46792;38.854;-9.384;2023-03-13T00:21:37;99725.19;;;13.86;92.41
60918;BME280;46792;38.854;-9.384;2023-03-13T00:23:40;99734.41;;;13.85;92.17
60918;BME280;46792;38.854;-9.384;2023-03-13T00:25:40;99738.47;;;13.82;93.89
60918;BME280;46792;38.854;-9.384;2023-03-13T00:27:41;99736.03;;;13.86;92.83
60918;BME280;46792;38.854;-9.384;2023-03-13T00:29:42;99729.00;;;13.80;93.62
60918;BME280;46792;38.854;-9.384;2023-03-13T00:31:42;99722.19;;;13.82;93.64
60918;BME280;46792;38.854;-9.384;2023-03-13T00:33:45;99715.97;;;13.82;94.43
60918;BME280;46792;38.854;-9.384;2023-03-13T00:35:46;99719.75;;;13.86;94.34
60918;BME280;46792;38.854;-9.384;2023-03-13T00:37:46;99712.09;;;13.93;94.38
60918;BME280;46792;38.854;-9.384;2023-03-13T00:39:47;99711.06;;;13.84;94.59
60918;BME280;46792;38.854;-9.384;2023-03-13T00:41:48;99698.38;;;13.79;95.17
60918;BME280;46792;38.854;-9.384;2023-03-13T00:43:49;99703.50;;;13.81;94.76
60918;BME280;46792;38.854;-9.384;2023-03-13T00:45:49;99693.97;;;13.83;94.36
60918;BME280;46792;38.854;-9.384;2023-03-13T00:47:50;99687.69;;;13.88;94.12
60918;BME280;46792;38.854;-9.384;2023-03-13T00:49:50;99678.13;;;13.96;93.88
60918;BME280;46792;38.854;-9.384;2023-03-13T00:51:51;99678.09;;;14.01;93.26
60918;BME280;46792;38.854;-9.384;2023-03-13T00:53:52;99679.72;;;14.02;92.21
60918;BME280;46792;38.854;-9.384;2023-03-13T00:56:13;99683.56;;;13.96;91.78
60918;BME280;46792;38.854;-9.384;2023-03-13T00:58:14;99685.25;;;13.92;91.58
60918;BME280;46792;38.854;-9.384;2023-03-13T01:00:34;99689.91;;;13.86;92.15
60918;BME280;46792;38.854;-9.384;2023-03-13T01:02:40;99698.28;;;13.90;91.54
60918;BME280;46792;38.854;-9.384;2023-03-13T01:04:41;99694.25;;;13.87;91.68
60918;BME280;46792;38.854;-9.384;2023-03-13T01:06:41;99701.25;;;13.88;91.78
60918;BME280;46792;38.854;-9.384;2023-03-13T01:08:42;99695.56;;;13.90;91.32
60918;BME280;46792;38.854;-9.384;2023-03-13T01:10:43;99693.13;;;13.88;91.34
60918;BME280;46792;38.854;-9.384;2023-03-13T01:12:43;99703.41;;;13.91;91.54
60918;BME280;46792;38.854;-9.384;2023-03-13T01:14:44;99707.19;;;13.95;91.63
60918;BME280;46792;38.854;-9.384;2023-03-13T01:16:45;99708.28;;;13.94;91.02
60918;BME280;46792;38.854;-9.384;2023-03-13T01:18:51;99722.69;;;13.90;91.47
60918;BME280;46792;38.854;-9.384;2023-03-13T01:23:30;99717.91;;;13.76;90.73
60918;BME280;46792;38.854;-9.384;2023-03-13T01:25:35;99711.19;;;13.68;91.50
60918;BME280;46792;38.854;-9.384;2023-03-13T01:27:36;99717.16;;;13.65;92.16
60918;BME280;46792;38.854;-9.384;2023-03-13T01:29:37;99721.75;;;13.65;92.87
60918;BME280;46792;38.854;-9.384;2023-03-13T01:31:38;99727.47;;;13.63;93.68
60918;BME280;46792;38.854;-9.384;2023-03-13T01:33:40;99724.75;;;13.63;93.92
60918;BME280;46792;38.854;-9.384;2023-03-13T01:35:41;99728.00;;;13.65;94.30
60918;BME280;46792;38.854;-9.384;2023-03-13T01:37:42;99719.88;;;13.65;94.81
60918;BME280;46792;38.854;-9.384;2023-03-13T01:39:43;99720.66;;;13.66;95.26
60918;BME280;46792;38.854;-9.384;2023-03-13T01:46:23;99719.25;;;13.74;95.24
60918;BME280;46792;38.854;-9.384;2023-03-13T01:50:28;99704.06;;;13.73;95.51
60918;BME280;46792;38.854;-9.384;2023-03-13T01:52:36;99694.91;;;13.68;95.71
60918;BME280;46792;38.854;-9.384;2023-03-13T01:55:05;99703.03;;;13.68;95.55
60918;BME280;46792;38.854;-9.384;2023-03-13T01:57:26;99711.97;;;13.69;95.65
60918;BME280;46792;38.854;-9.384;2023-03-13T01:59:41;99694.06;;;13.68;95.65
60918;BME280;46792;38.854;-9.384;2023-03-13T02:01:46;99694.91;;;13.68;95.93
60918;BME280;46792;38.854;-9.384;2023-03-13T02:03:47;99687.28;;;13.71;95.59
60918;BME280;46792;38.854;-9.384;2023-03-13T02:06:17;99691.03;;;13.75;95.10
60918;BME280;46792;38.854;-9.384;2023-03-13T02:08:21;99697.06;;;13.72;94.66
60918;BME280;46792;38.854;-9.384;2023-03-13T02:10:24;99698.69;;;13.67;94.69
60918;BME280;46792;38.854;-9.384;2023-03-13T02:12:30;99697.63;;;13.63;94.66
60918;BME280;46792;38.854;-9.384;2023-03-13T02:17:55;99690.06;;;13.60;94.53
60918;BME280;46792;38.854;-9.384;2023-03-13T02:19:55;99691.97;;;13.60;94.59
60918;BME280;46792;38.854;-9.384;2023-03-13T02:29:19;99686.81;;;13.58;94.60
60918;BME280;46792;38.854;-9.384;2023-03-13T02:31:20;99680.03;;;13.56;94.92
60918;BME280;46792;38.854;-9.384;2023-03-13T02:33:21;99676.53;;;13.55;95.34
60918;BME280;46792;38.854;-9.384;2023-03-13T02:35:26;99677.03;;;13.57;95.03
60918;BME280;46792;38.854;-9.384;2023-03-13T02:37:28;99685.19;;;13.57;95.08
60918;BME280;46792;38.854;-9.384;2023-03-13T02:39:31;99690.91;;;13.56;95.05
60918;BME280;46792;38.854;-9.384;2023-03-13T02:41:35;99690.88;;;13.61;94.71
60918;BME280;46792;38.854;-9.384;2023-03-13T02:43:37;99696.00;;;13.62;95.22
60918;BME280;46792;38.854;-9.384;2023-03-13T02:45:38;99693.84;;;13.64;94.84
60918;BME280;46792;38.854;-9.384;2023-03-13T02:47:57;99698.44;;;13.64;95.14
60918;BME280;46792;38.854;-9.384;2023-03-13T02:49:58;99693.84;;;13.59;95.27
60918;BME280;46792;38.854;-9.384;2023-03-13T02:54:15;99693.31;;;13.57;95.77
60918;BME280;46792;38.854;-9.384;2023-03-13T02:56:18;99690.66;;;13.52;96.08
60918;BME280;46792;38.854;-9.384;2023-03-13T02:58:23;99687.88;;;13.62;95.58
60918;BME280;46792;38.854;-9.384;2023-03-13T03:00:23;99676.00;;;13.53;96.22
60918;BME280;46792;38.854;-9.384;2023-03-13T03:02:26;99667.88;;;13.48;96.68
60918;BME280;46792;38.854;-9.384;2023-03-13T03:04:27;99661.38;;;13.49;96.88
60918;BME280;46792;38.854;-9.384;2023-03-13T03:06:29;99661.09;;;13.50;97.23
60918;BME280;46792;38.854;-9.384;2023-03-13T03:08:34;99659.94;;;13.62;97.69
60918;BME280;46792;38.854;-9.384;2023-03-13T03:10:36;99654.53;;;13.62;98.00
60918;BME280;46792;38.854;-9.384;2023-03-13T03:12:38;99648.28;;;13.61;98.72
60918;BME280;46792;38.854;-9.384;2023-03-13T03:14:38;99649.91;;;13.62;99.41
60918;BME280;46792;38.854;-9.384;2023-03-13T03:16:39;99664.75;;;13.70;100.00
60918;BME280;46792;38.854;-9.384;2023-03-13T03:18:40;99670.63;;;13.82;100.00
60918;BME280;46792;38.854;-9.384;2023-03-13T03:20:41;99663.28;;;13.88;100.00
60918;BME280;46792;38.854;-9.384;2023-03-13T03:22:42;99661.16;;;13.85;100.00
60918;BME280;46792;38.854;-9.384;2023-03-13T03:24:42;99654.34;;;13.82;100.00
60918;BME280;46792;38.854;-9.384;2023-03-13T03:26:43;99656.03;;;13.78;100.00
60918;BME280;46792;38.854;-9.384;2023-03-13T03:28:51;99652.50;;;13.78;100.00
60918;BME280;46792;38.854;-9.384;2023-03-13T03:30:52;99649.22;;;13.81;100.00
60918;BME280;46792;38.854;-9.384;2023-03-13T03:32:54;99647.91;;;13.78;100.00
60918;BME280;46792;38.854;-9.384;2023-03-13T03:34:56;99641.31;;;13.84;100.00
60918;BME280;46792;38.854;-9.384;2023-03-13T03:36:57;99641.84;;;13.87;100.00
60918;BME280;46792;38.854;-9.384;2023-03-13T03:38:58;99646.41;;;13.91;100.00
60918;BME280;46792;38.854;-9.384;2023-03-13T03:41:00;99639.13;;;13.87;100.00
60918;BME280;46792;38.854;-9.384;2023-03-13T03:43:01;99643.72;;;13.91;100.00
60918;BME280;46792;38.854;-9.384;2023-03-13T03:45:02;99636.09;;;13.93;100.00
60918;BME280;46792;38.854;-9.384;2023-03-13T03:52:39;99622.81;;;13.92;100.00
60918;BME280;46792;38.854;-9.384;2023-03-13T03:54:39;99632.72;;;14.07;100.00
60918;BME280;46792;38.854;-9.384;2023-03-13T03:56:40;99643.31;;;14.08;100.00
60918;BME280;46792;38.854;-9.384;2023-03-13T03:58:40;99642.56;;;14.03;100.00
60918;BME280;46792;38.854;-9.384;2023-03-13T04:00:48;99636.41;;;14.21;100.00
60918;BME280;46792;38.854;-9.384;2023-03-13T04:02:49;99643.75;;;14.21;100.00
60918;BME280;46792;38.854;-9.384;2023-03-13T04:04:50;99648.31;;;14.25;100.00
60918;BME280;46792;38.854;-9.384;2023-03-13T04:07:02;99643.94;;;14.29;100.00
60918;BME280;46792;38.854;-9.384;2023-03-13T04:09:05;99628.91;;;14.37;100.00
60918;BME280;46792;38.854;-9.384;2023-03-13T04:11:06;99638.41;;;14.40;100.00
60918;BME280;46792;38.854;-9.384;2023-03-13T04:13:10;99636.69;;;14.49;100.00
60918;BME280;46792;38.854;-9.384;2023-03-13T04:15:11;99635.28;;;14.52;100.00
60918;BME280;46792;38.854;-9.384;2023-03-13T04:17:13;99639.09;;;14.51;100.00
60918;BME280;46792;38.854;-9.384;2023-03-13T04:19:15;99639.66;;;14.48;100.00
60918;BME280;46792;38.854;-9.384;2023-03-13T04:21:17;99636.97;;;14.48;100.00
60918;BME280;46792;38.854;-9.384;2023-03-13T04:23:25;99635.13;;;14.67;100.00
60918;BME280;46792;38.854;-9.384;2023-03-13T04:25:26;99642.00;;;14.59;100.00
60918;BME280;46792;38.854;-9.384;2023-03-13T04:27:34;99645.75;;;14.64;100.00
60918;BME280;46792;38.854;-9.384;2023-03-13T04:29:36;99648.97;;;14.71;100.00
60918;BME280;46792;38.854;-9.384;2023-03-13T04:32:27;99642.34;;;14.82;100.00
60918;BME280;46792;38.854;-9.384;2023-03-13T04:34:55;99626.88;;;14.78;100.00
60918;BME280;46792;38.854;-9.384;2023-03-13T04:37:08;99640.19;;;14.79;100.00
60918;BME280;46792;38.854;-9.384;2023-03-13T04:39:14;99646.19;;;14.76;100.00
60918;BME280;46792;38.854;-9.384;2023-03-13T04:41:38;99646.94;;;14.82;100.00
60918;BME280;46792;38.854;-9.384;2023-03-13T04:43:58;99648.34;;;14.79;100.00
60918;BME280;46792;38.854;-9.384;2023-03-13T04:46:10;99642.38;;;14.77;100.00
60918;BME280;46792;38.854;-9.384;2023-03-13T04:48:23;99649.13;;;14.80;100.00
60918;BME280;46792;38.854;-9.384;2023-03-13T04:50:46;99645.38;;;15.00;100.00
60918;BME280;46792;38.854;-9.384;2023-03-13T04:52:56;99645.13;;;14.96;100.00
60918;BME280;46792;38.854;-9.384;2023-03-13T04:55:05;99645.88;;;15.02;100.00
60918;BME280;46792;38.854;-9.384;2023-03-13T04:57:20;99649.22;;;14.99;100.00
60918;BME280;46792;38.854;-9.384;2023-03-13T04:59:29;99665.81;;;15.16;100.00
60918;BME280;46792;38.854;-9.384;2023-03-13T05:01:54;99662.59;;;15.14;100.00
60918;BME280;46792;38.854;-9.384;2023-03-13T05:04:12;99661.72;;;15.19;100.00
60918;BME280;46792;38.854;-9.384;2023-03-13T05:06:34;99658.91;;;15.05;100.00
60918;BME280;46792;38.854;-9.384;2023-03-13T05:09:04;99668.97;;;15.04;100.00
60918;BME280;46792;38.854;-9.384;2023-03-13T05:11:15;99661.69;;;15.00;100.00
60918;BME280;46792;38.854;-9.384;2023-03-13T05:13:28;99673.25;;;14.86;100.00
60918;BME280;46792;38.854;-9.384;2023-03-13T05:15:52;99654.16;;;14.92;100.00
60918;BME280;46792;38.854;-9.384;2023-03-13T05:18:34;99662.78;;;14.99;100.00
60918;BME280;46792;38.854;-9.384;2023-03-13T05:20:54;99659.31;;;14.93;100.00
60918;BME280;46792;38.854;-9.384;2023-03-13T05:23:23;99668.69;;;15.06;100.00
60918;BME280;46792;38.854;-9.384;2023-03-13T05:25:59;99671.44;;;15.01;100.00
60918;BME280;46792;38.854;-9.384;2023-03-13T05:28:18;99660.66;;;14.96;100.00
60918;BME280;46792;38.854;-9.384;2023-03-13T05:30:22;99652.41;;;15.01;100.00
60918;BME280;46792;38.854;-9.384;2023-03-13T05:32:40;99661.44;;;14.96;100.00
60918;BME280;46792;38.854;-9.384;2023-03-13T05:35:00;99664.47;;;14.95;100.00
60918;BME280;46792;38.854;-9.384;2023-03-13T05:37:19;99650.75;;;14.81;100.00
60918;BME280;46792;38.854;-9.384;2023-03-13T05:39:47;99649.72;;;14.77;100.00
60918;BME280;46792;38.854;-9.384;2023-03-13T05:42:06;99659.25;;;14.74;100.00
60918;BME280;46792;38.854;-9.384;2023-03-13T05:44:34;99661.94;;;14.79;100.00
60918;BME280;46792;38.854;-9.384;2023-03-13T05:46:55;99662.72;;;14.80;100.00
60918;BME280;46792;38.854;-9.384;2023-03-13T05:49:10;99664.56;;;14.84;100.00
60918;BME280;46792;38.854;-9.384;2023-03-13T05:51:34;99663.06;;;14.97;100.00
60918;BME280;46792;38.854;-9.384;2023-03-13T05:53:54;99669.84;;;15.00;100.00
60918;BME280;46792;38.854;-9.384;2023-03-13T05:56:06;99662.03;;;14.93;100.00
60918;BME280;46792;38.854;-9.384;2023-03-13T05:58:35;99657.69;;;14.92;100.00
60918;BME280;46792;38.854;-9.384;2023-03-13T06:00:44;99658.28;;;14.89;100.00
60918;BME280;46792;38.854;-9.384;2023-03-13T06:03:04;99662.31;;;14.92;100.00
60918;BME280;46792;38.854;-9.384;2023-03-13T06:05:12;99652.59;;;14.85;100.00
60918;BME280;46792;38.854;-9.384;2023-03-13T06:07:13;99658.34;;;14.84;100.00
60918;BME280;46792;38.854;-9.384;2023-03-13T06:09:13;99654.47;;;14.90;100.00
60918;BME280;46792;38.854;-9.384;2023-03-13T06:11:14;99649.41;;;15.02;100.00
60918;BME280;46792;38.854;-9.384;2023-03-13T06:13:15;99663.94;;;14.93;100.00
60918;BME280;46792;38.854;-9.384;2023-03-13T06:15:16;99658.69;;;15.01;100.00
60918;BME280;46792;38.854;-9.384;2023-03-13T06:17:35;99664.16;;;14.96;100.00
60918;BME280;46792;38.854;-9.384;2023-03-13T06:19:36;99656.94;;;14.86;100.00
60918;BME280;46792;38.854;-9.384;2023-03-13T06:21:37;99658.63;;;14.82;100.00
60918;BME280;46792;38.854;-9.384;2023-03-13T06:23:37;99659.22;;;14.79;100.00
60918;BME280;46792;38.854;-9.384;2023-03-13T06:25:38;99662.72;;;14.80;100.00
60918;BME280;46792;38.854;-9.384;2023-03-13T06:27:39;99658.69;;;14.77;100.00
60918;BME280;46792;38.854;-9.384;2023-03-13T06:29:40;99640.97;;;14.80;100.00
60918;BME280;46792;38.854;-9.384;2023-03-13T06:31:41;99636.38;;;14.80;100.00
60918;BME280;46792;38.854;-9.384;2023-03-13T06:33:42;99630.94;;;14.80;100.00
60918;BME280;46792;38.854;-9.384;2023-03-13T06:35:43;99628.50;;;14.79;100.00
60918;BME280;46792;38.854;-9.384;2023-03-13T06:37:44;99628.06;;;14.71;100.00
60918;BME280;46792;38.854;-9.384;2023-03-13T06:40:03;99611.81;;;14.61;100.00
60918;BME280;46792;38.854;-9.384;2023-03-13T06:42:05;99633.25;;;14.68;100.00
60918;BME280;46792;38.854;-9.384;2023-03-13T06:44:06;99635.13;;;14.67;100.00
60918;BME280;46792;38.854;-9.384;2023-03-13T06:46:08;99634.84;;;14.69;100.00
60918;BME280;46792;38.854;-9.384;2023-03-13T06:48:14;99627.81;;;14.68;100.00
60918;BME280;46792;38.854;-9.384;2023-03-13T06:50:15;99620.41;;;14.73;100.00
60918;BME280;46792;38.854;-9.384;2023-03-13T06:52:16;99633.19;;;14.73;100.00
60918;BME280;46792;38.854;-9.384;2023-03-13T06:54:17;99636.44;;;14.75;100.00
60918;BME280;46792;38.854;-9.384;2023-03-13T06:56:17;99632.56;;;14.81;100.00
60918;BME280;46792;38.854;-9.384;2023-03-13T06:58:18;99636.38;;;14.80;100.00
60918;BME280;46792;38.854;-9.384;2023-03-13T07:00:19;99626.78;;;14.88;100.00
60918;BME280;46792;38.854;-9.384;2023-03-13T07:02:20;99628.38;;;14.89;100.00
60918;BME280;46792;38.854;-9.384;2023-03-13T07:06:59;99649.38;;;14.83;100.00
60918;BME280;46792;38.854;-9.384;2023-03-13T07:08:59;99656.88;;;14.92;100.00
60918;BME280;46792;38.854;-9.384;2023-03-13T07:11:02;99648.78;;;14.86;100.00
60918;BME280;46792;38.854;-9.384;2023-03-13T07:13:03;99637.34;;;14.89;100.00
60918;BME280;46792;38.854;-9.384;2023-03-13T07:15:05;99644.34;;;14.96;100.00
60918;BME280;46792;38.854;-9.384;2023-03-13T07:17:05;99636.03;;;14.87;100.00
60918;BME280;46792;38.854;-9.384;2023-03-13T07:19:06;99641.34;;;14.73;100.00
60918;BME280;46792;38.854;-9.384;2023-03-13T07:21:08;99642.16;;;14.73;100.00
60918;BME280;46792;38.854;-9.384;2023-03-13T07:23:09;99642.38;;;14.77;100.00
60918;BME280;46792;38.854;-9.384;2023-03-13T07:25:10;99646.91;;;14.87;100.00
60918;BME280;46792;38.854;-9.384;2023-03-13T07:27:10;99647.81;;;14.77;100.00
60918;BME280;46792;38.854;-9.384;2023-03-13T07:29:11;99647.59;;;14.73;100.00
60918;BME280;46792;38.854;-9.384;2023-03-13T07:31:14;99642.97;;;14.74;100.00
60918;BME280;46792;38.854;-9.384;2023-03-13T07:33:15;99640.19;;;14.79;100.00
60918;BME280;46792;38.854;-9.384;2023-03-13T07:35:16;99639.38;;;14.79;100.00
60918;BME280;46792;38.854;-9.384;2023-03-13T07:37:17;99640.81;;;14.71;100.00
60918;BME280;46792;38.854;-9.384;2023-03-13T07:39:17;99641.81;;;14.80;100.00
60918;BME280;46792;38.854;-9.384;2023-03-13T07:41:19;99635.31;;;14.76;100.00
60918;BME280;46792;38.854;-9.384;2023-03-13T07:43:38;99635.91;;;14.73;100.00
60918;BME280;46792;38.854;-9.384;2023-03-13T07:48:37;99636.59;;;14.84;100.00
60918;BME280;46792;38.854;-9.384;2023-03-13T07:50:38;99633.34;;;14.82;100.00
60918;BME280;46792;38.854;-9.384;2023-03-13T07:52:39;99633.09;;;14.83;100.00
60918;BME280;46792;38.854;-9.384;2023-03-13T07:54:39;99649.63;;;14.87;100.00
60918;BME280;46792;38.854;-9.384;2023-03-13T07:56:40;99647.13;;;14.90;100.00
60918;BME280;46792;38.854;-9.384;2023-03-13T07:58:41;99653.88;;;14.93;100.00
60918;BME280;46792;38.854;-9.384;2023-03-13T08:00:42;99649.22;;;14.99;100.00
60918;BME280;46792;38.854;-9.384;2023-03-13T08:02:43;99648.38;;;14.98;100.00
60918;BME280;46792;38.854;-9.384;2023-03-13T08:04:43;99658.38;;;15.03;100.00
60918;BME280;46792;38.854;-9.384;2023-03-13T08:06:44;99655.06;;;15.06;100.00
60918;BME280;46792;38.854;-9.384;2023-03-13T08:08:45;99651.25;;;15.07;100.00
60918;BME280;46792;38.854;-9.384;2023-03-13T08:10:46;99666.34;;;15.18;100.00
60918;BME280;46792;38.854;-9.384;2023-03-13T08:12:47;99662.53;;;15.19;100.00
60918;BME280;46792;38.854;-9.384;2023-03-13T08:14:47;99663.03;;;15.21;100.00
60918;BME280;46792;38.854;-9.384;2023-03-13T08:16:48;99666.75;;;15.31;100.00
60918;BME280;46792;38.854;-9.384;2023-03-13T08:18:51;99665.97;;;15.25;100.00
60918;BME280;46792;38.854;-9.384;2023-03-13T08:20:52;99674.66;;;15.27;100.00
60918;BME280;46792;38.854;-9.384;2023-03-13T08:22:54;99672.97;;;15.31;100.00
60918;BME280;46792;38.854;-9.384;2023-03-13T08:24:55;99678.56;;;15.40;100.00
60918;BME280;46792;38.854;-9.384;2023-03-13T08:26:55;99682.91;;;15.41;100.00
60918;BME280;46792;38.854;-9.384;2023-03-13T08:29:02;99684.53;;;15.42;100.00
60918;BME280;46792;38.854;-9.384;2023-03-13T08:31:20;99693.22;;;15.44;100.00
60918;BME280;46792;38.854;-9.384;2023-03-13T08:33:20;99696.56;;;15.36;100.00
60918;BME280;46792;38.854;-9.384;2023-03-13T08:35:21;99690.13;;;15.32;100.00
60918;BME280;46792;38.854;-9.384;2023-03-13T08:37:22;99691.97;;;15.36;100.00
60918;BME280;46792;38.854;-9.384;2023-03-13T08:39:22;99696.06;;;15.34;100.00
60918;BME280;46792;38.854;-9.384;2023-03-13T08:41:25;99690.97;;;15.27;100.00
60918;BME280;46792;38.854;-9.384;2023-03-13T08:43:26;99703.94;;;15.35;100.00
60918;BME280;46792;38.854;-9.384;2023-03-13T08:45:26;99701.00;;;15.32;100.00
60918;BME280;46792;38.854;-9.384;2023-03-13T08:47:27;99699.97;;;15.28;100.00
60918;BME280;46792;38.854;-9.384;2023-03-13T08:49:27;99700.47;;;15.30;100.00
60918;BME280;46792;38.854;-9.384;2023-03-13T08:51:29;99711.41;;;15.25;100.00
60918;BME280;46792;38.854;-9.384;2023-03-13T08:53:31;99711.63;;;15.28;100.00
60918;BME280;46792;38.854;-9.384;2023-03-13T08:55:34;99714.44;;;15.23;100.00
60918;BME280;46792;38.854;-9.384;2023-03-13T08:57:35;99713.91;;;15.21;100.00
60918;BME280;46792;38.854;-9.384;2023-03-13T08:59:36;99718.47;;;15.26;100.00
60918;BME280;46792;38.854;-9.384;2023-03-13T09:01:38;99720.63;;;15.29;100.00
60918;BME280;46792;38.854;-9.384;2023-03-13T09:03:41;99719.97;;;15.37;100.00
60918;BME280;46792;38.854;-9.384;2023-03-13T09:05:41;99725.63;;;15.41;100.00
60918;BME280;46792;38.854;-9.384;2023-03-13T09:07:42;99717.69;;;15.44;100.00
60918;BME280;46792;38.854;-9.384;2023-03-13T09:09:43;99716.59;;;15.45;100.00
60918;BME280;46792;38.854;-9.384;2023-03-13T09:11:45;99726.75;;;15.59;100.00
60918;BME280;46792;38.854;-9.384;2023-03-13T09:13:48;99731.47;;;15.72;100.00
60918;BME280;46792;38.854;-9.384;2023-03-13T09:16:03;99737.66;;;15.78;100.00
60918;BME280;46792;38.854;-9.384;2023-03-13T09:18:04;99736.03;;;15.77;100.00
60918;BME280;46792;38.854;-9.384;2023-03-13T09:20:06;99738.34;;;15.89;100.00
60918;BME280;46792;38.854;-9.384;2023-03-13T09:22:07;99738.28;;;15.94;100.00
60918;BME280;46792;38.854;-9.384;2023-03-13T09:24:08;99741.88;;;15.89;100.00
60918;BME280;46792;38.854;-9.384;2023-03-13T09:26:09;99741.69;;;15.80;100.00
60918;BME280;46792;38.854;-9.384;2023-03-13T09:28:10;99755.47;;;15.89;100.00
60918;BME280;46792;38.854;-9.384;2023-03-13T09:30:11;99740.53;;;15.87;100.00
60918;BME280;46792;38.854;-9.384;2023-03-13T09:32:12;99746.97;;;15.96;100.00
60918;BME280;46792;38.854;-9.384;2023-03-13T09:34:12;99752.31;;;16.01;100.00
60918;BME280;46792;38.854;-9.384;2023-03-13T09:36:14;99744.88;;;16.07;100.00
60918;BME280;46792;38.854;-9.384;2023-03-13T09:38:19;99748.41;;;16.07;100.00
60918;BME280;46792;38.854;-9.384;2023-03-13T09:40:23;99752.09;;;16.17;100.00
60918;BME280;46792;38.854;-9.384;2023-03-13T09:42:43;99761.63;;;16.33;100.00
60918;BME280;46792;38.854;-9.384;2023-03-13T09:44:51;99766.50;;;16.36;100.00
60918;BME280;46792;38.854;-9.384;2023-03-13T09:47:03;99767.19;;;16.28;100.00
60918;BME280;46792;38.854;-9.384;2023-03-13T09:51:40;99764.53;;;16.23;100.00
60918;BME280;46792;38.854;-9.384;2023-03-13T09:55:46;99764.88;;;16.35;100.00
60918;BME280;46792;38.854;-9.384;2023-03-13T09:57:55;99757.00;;;16.34;100.00
60918;BME280;46792;38.854;-9.384;2023-03-13T10:00:18;99769.66;;;16.24;100.00
60918;BME280;46792;38.854;-9.384;2023-03-13T10:02:29;99766.50;;;16.36;100.00
60918;BME280;46792;38.854;-9.384;2023-03-13T10:04:31;99776.41;;;16.46;100.00
60918;BME280;46792;38.854;-9.384;2023-03-13T10:06:40;99771.56;;;16.43;100.00
60918;BME280;46792;38.854;-9.384;2023-03-13T10:08:43;99776.69;;;16.64;100.00
60918;BME280;46792;38.854;-9.384;2023-03-13T10:13:14;99791.25;;;16.87;100.00
60918;BME280;46792;38.854;-9.384;2023-03-13T10:15:51;99787.31;;;16.93;100.00
60918;BME280;46792;38.854;-9.384;2023-03-13T10:17:55;99790.50;;;17.00;100.00
60918;BME280;46792;38.854;-9.384;2023-03-13T10:20:16;99801.41;;;17.00;100.00
60918;BME280;46792;38.854;-9.384;2023-03-13T10:22:20;99797.38;;;17.12;100.00
60918;BME280;46792;38.854;-9.384;2023-03-13T10:24:31;99806.16;;;17.09;100.00
60918;BME280;46792;38.854;-9.384;2023-03-13T10:26:35;99811.03;;;17.12;100.00
60918;BME280;46792;38.854;-9.384;2023-03-13T10:28:36;99808.22;;;17.17;100.00
60918;BME280;46792;38.854;-9.384;2023-03-13T10:30:42;99814.97;;;17.20;100.00
60918;BME280;46792;38.854;-9.384;2023-03-13T10:32:45;99816.81;;;17.24;100.00
60918;BME280;46792;38.854;-9.384;2023-03-13T10:34:56;99815.28;;;17.18;100.00
60918;BME280;46792;38.854;-9.384;2023-03-13T10:36:59;99821.03;;;17.30;100.00
60918;BME280;46792;38.854;-9.384;2023-03-13T10:39:04;99826.59;;;17.39;100.00
60918;BME280;46792;38.854;-9.384;2023-03-13T10:41:28;99830.03;;;17.45;100.00
60918;BME280;46792;38.854;-9.384;2023-03-13T10:43:31;99825.28;;;17.51;100.00
60918;BME280;46792;38.854;-9.384;2023-03-13T10:45:35;99838.94;;;17.51;100.00
60918;BME280;46792;38.854;-9.384;2023-03-13T10:47:37;99839.47;;;17.39;100.00
60918;BME280;46792;38.854;-9.384;2023-03-13T10:49:56;99843.47;;;17.27;100.00
60918;BME280;46792;38.854;-9.384;2023-03-13T10:52:01;99831.56;;;17.23;100.00
60918;BME280;46792;38.854;-9.384;2023-03-13T10:54:33;99845.06;;;17.00;100.00
60918;BME280;46792;38.854;-9.384;2023-03-13T10:56:36;99838.22;;;16.84;100.00
60918;BME280;46792;38.854;-9.384;2023-03-13T10:58:45;99832.38;;;16.57;100.00
60918;BME280;46792;38.854;-9.384;2023-03-13T11:00:50;99819.72;;;16.48;100.00
60918;BME280;46792;38.854;-9.384;2023-03-13T11:02:52;99846.03;;;16.38;100.00
60918;BME280;46792;38.854;-9.384;2023-03-13T11:04:54;99842.22;;;16.53;100.00
60918;BME280;46792;38.854;-9.384;2023-03-13T11:07:08;99844.44;;;16.70;100.00
60918;BME280;46792;38.854;-9.384;2023-03-13T11:09:15;99857.22;;;16.89;100.00
60918;BME280;46792;38.854;-9.384;2023-03-13T11:11:18;99845.81;;;16.87;100.00
60918;BME280;46792;38.854;-9.384;2023-03-13T11:15:29;99862.56;;;17.27;100.00
60918;BME280;46792;38.854;-9.384;2023-03-13T11:17:36;99867.94;;;17.32;100.00
60918;BME280;46792;38.854;-9.384;2023-03-13T11:27:56;99882.97;;;17.16;100.00
60918;BME280;46792;38.854;-9.384;2023-03-13T11:32:44;99881.34;;;17.15;100.00
60918;BME280;46792;38.854;-9.384;2023-03-13T11:34:53;99898.28;;;17.31;100.00
60918;BME280;46792;38.854;-9.384;2023-03-13T11:37:13;99892.19;;;17.20;97.57
60918;BME280;46792;38.854;-9.384;2023-03-13T11:41:44;99886.63;;;16.92;99.46
60918;BME280;46792;38.854;-9.384;2023-03-13T11:46:07;99896.81;;;16.67;99.60
60918;BME280;46792;38.854;-9.384;2023-03-13T11:55:20;99896.22;;;16.70;99.15
60918;BME280;46792;38.854;-9.384;2023-03-13T11:57:27;99901.16;;;16.68;99.60
60918;BME280;46792;38.854;-9.384;2023-03-13T12:01:56;99905.84;;;16.82;97.75